Terminal Aerodrome Forecast
Issued by NWS Houston/Galveston TX

Home | Current Version | Previous Version | Text Only | Print | Product List | Glossary On
Versions: 1 2 3 4 5 6 7 8 9 10 11 12 13 14 15 16 17 18 19 20 21 22 23 24 25 26 27 28 29 30 31 32 33 34 35 36 37 38 39 40 41 42 43 44 45 46 47 48 49 50
000
FTUS44 KHGX 302324
TAFHOU
TAF
KHOU 302324Z 0100/0124 10006KT P6SM FEW040 BKN250
     FM010300 09005KT P6SM SCT015
     FM010900 05007KT P6SM SCT007 BKN015
     FM011500 10008KT P6SM BKN025
     FM011700 10008KT P6SM VCSH BKN035
     FM012100 11008KT P6SM VCSH BKN040 PROB30 0121/0124 5SM -TSRA
      BKN030CB=

USA.gov is the U.S. government's official web portal to all federal, state and local government web resources and services.